Warning: Javascript must be enabled to use all the features on this page!


Page Loading - Please Wait...

* We've detected you're using a mobile device. Find our Next Generation Station Page here.
Click to hideNews Bulletins

Peak Streamflow for the Nation

USGS 02486000 PEARL RIVER AT JACKSON, MS

Rankin County, Mississippi
Hydrologic Unit Code 03180002
Latitude  32°16'53", Longitude  90°10'44" NAD83
Drainage area 3,171  square miles
Contributing drainage area 3,171  square miles
Gage datum 233.39 feet above NAVD88
Output formats
Table
Graph
Tab-separated file
peakfq (watstore) format
Reselect output format
Water
Year
Date Gage
Height
(feet)
Stream-
flow
(cfs)
1874 1874-04-25 37.203 80,0007
1881 1880-12-05 36.503 70,0007
1900 1900-04-21 36.703 75,000
1901 1901   24,0002,Bm
1902 1902-03-31 37.503 85,000
1903 1903-02-14 33.703 43,600
1904 1904-04-11 11.103 5,300
1905 1905-02-17 29.203 24,900
1906 1906-03-29 29.803 26,000
1907 1906-10-13 30.103 26,600
1908 1908-02-23 29.803 26,000
1909 1909-05-30 35.303 58,300
1910 1910-04-20 16.403 9,020
1911 1911-04-16 22.603 14,600
1912 1912-04-23 31.703 29,600
1913 1913-03-18 29.003 24,600
1914 1914-04-09 31.103 29,900
1915 1915-02-09 26.703 20,200
1916 1916-01-09 26.703 20,200
1917 1917-04-11 26.503 19,800
1918 1918-05-04 22.903 15,300
1919 1919-03-19 27.603 21,800
1920 1919-12-17 30.503 28,100
1921 1921-04-21 32.903 37,800
1922 1922-03-11 28.803 24,200
1923 1923-02-16 30.703 28,700
1924 1924-03-08 26.803 20,400
1925 1925-01-25 28.803 24,200
1926 1926-03-17 27.003 20,700
1927 1927-02-24 30.003 26,800
1928 1928-04-30 29.803 26,300
1929 1929-03-24 32.303 30,600
1930 1930-05-28 31.903 29,400
1931 1931-08-05 26.403 15,100
1932 1932-02-28 29.103 21,300
1933 1932-12-19 35.203 60,000
1934 1934-03-13 28.003 18,600
1935 1935-03-12 35.183 56,700
1936 1936-02-12 32.463 34,400
1937 1937-01-29 30.003 22,800
1938 1938-04-09 32.073 32,100
1939 1939-02-15 28.933 19,200
1940 1940-07-18 31.943 30,100
1941 1940-12-29 25.173 12,700
1942 1942-03-17 19.413 7,720
1943 1943-03-30 28.423 19,200
1944 1944-04-04 34.033 46,700
1945 1945-03-01 32.583 36,900
1946 1946-02-17 34.443 49,600
1947 1947-01-22 30.663 26,000
1948 1948-03-11 30.633 25,600
1949 1949-01-12 33.113 38,300
1950 1950-01-14 33.903 44,700
1951 1951-04-04 34.363 49,100
1952 1952-03-16 17.513 6,600
1953 1953-05-09 31.653 28,500
1954 1954-05-12 23.253 10,600
1955 1955-04-20 31.503 27,500
1956 1956-04-14 31.783 29,300
1957 1957-04-11 30.323 22,100
1958 1958-05-08 34.233 38,900
1959 1959-02-20 26.523 13,600
1960 1960-03-11 30.293 22,600
1961 1961-03-01 35.003 46,0005
1962 1961-12-21 37.243 66,1005
1963 1963-03-19 17.743 6,4405
1964 1964-03-23 31.003 24,0005
1965 1965-02-17 32.023 28,8005
1966 1966-02-18 30.993 26,7005
1967 1967-05-25 20.163 8,1305
1968 1967-12-23 31.433 29,9005
1969 1969-04-20 34.553 44,8005
1970 1970-05-03 27.433 18,3005
1971 1971-05-15 32.673 32,1005
1972 1972-01-17 32.563 31,6005
1973 1973-04-19 32.993 33,4005
1974 1974-04-19 34.363 40,3005
1975 1975-03-20 32.433 34,4005
1976 1976-04-03 35.746 50,4005
1977 1977-04-09 35.57 48,9005
1978 1978-05-14 32.09 30,4005
1979 1979-04-17 43.28 128,0005
1980 1980-04-15 35.63 51,8005
1981 1981-04-07 30.26 25,0005
1982 1982-04-24 28.19 19,9005
1983 1983-05-25 39.58 79,5005
1984 1984-03-08 28.60 21,2005
1985 1985-02-07 29.26 24,7005
1986 1986-03-22 24.86 13,8005
1987 1987-02-28 32.59 32,3005
1988 1988-04-06 27.87 18,2005
1989 1989-01-17 30.50 24,8005
1990 1990-01-25 33.75 38,0005
1991 1991-05-04 35.12 46,2005
1992 1992-02-18 22.46 10,4005
1993 1993-01-23 29.05 20,9005
1994 1994-01-30 32.89 33,5005
1995 1995-04-24 34.68 43,4005
1996 1996-01-30 33.01 34,1005
1997 1997-02-15 30.95 26,1005
1998 1998-01-24 32.37 31,4005
1999 1999-02-02 32.73 32,9005
2000 2000-04-06 31.66 28,6005
2001 2001-03-04 32.09 30,3005
2002 2002-09-30 27.21 17,4005
2003 2003-02-24 35.25 50,1005
2004 2004-02-12 32.07 32,6005
2005 2004-12-12 31.09 29,5005
2006 2006-03-01 30.74 28,5005
2007 2007-01-08 27.97 21,1005
2008 2008-02-24 25.55 15,7005
2009 2008-12-16 31.84 31,8005
2010 2009-10-18 29.04 23,8005
2011 2011-09-08 32.21 33,2005
2012 2012-03-26 28.31 21,9005
2013 2013-01-22 32.04 32,2005
2014 2014-04-11 34.30 43,2005
2015 2015-03-01 26.71 18,6005
2016 2016-03-16 33.30 36,8005
2017 2017-04-06 33.32 39,9005
2018 2018-04-10 26.19 17,7005
2019 2019-01-05 32.37 33,2005
2020 2020-02-17 36.67 77,3005
?
  Peak Gage-Height Qualification Codes.
?
  Peak Streamflow Qualification Codes.